sensor_id;sensor_type;location;lat;lon;timestamp;temperature;humidity
43627;DHT22;29217;52.586;13.442;2022-10-31T00:00:58;8.80;99.90
43627;DHT22;29217;52.586;13.442;2022-10-31T00:03:23;8.90;99.90
43627;DHT22;29217;52.586;13.442;2022-10-31T00:05:50;9.00;99.90
43627;DHT22;29217;52.586;13.442;2022-10-31T00:08:16;9.00;99.90
43627;DHT22;29217;52.586;13.442;2022-10-31T00:10:43;9.00;99.90
43627;DHT22;29217;52.586;13.442;2022-10-31T00:13:10;9.00;99.90
43627;DHT22;29217;52.586;13.442;2022-10-31T00:15:37;9.10;99.90
43627;DHT22;29217;52.586;13.442;2022-10-31T00:18:04;9.00;99.90
43627;DHT22;29217;52.586;13.442;2022-10-31T00:20:30;9.00;99.90
43627;DHT22;29217;52.586;13.442;2022-10-31T00:23:00;9.00;99.90
43627;DHT22;29217;52.586;13.442;2022-10-31T00:25:27;8.90;99.90
43627;DHT22;29217;52.586;13.442;2022-10-31T00:27:53;8.90;99.90
43627;DHT22;29217;52.586;13.442;2022-10-31T00:30:18;8.90;99.90
43627;DHT22;29217;52.586;13.442;2022-10-31T00:32:44;8.90;99.90
43627;DHT22;29217;52.586;13.442;2022-10-31T00:35:10;8.90;99.90
43627;DHT22;29217;52.586;13.442;2022-10-31T00:37:35;8.90;99.90
43627;DHT22;29217;52.586;13.442;2022-10-31T00:40:01;8.90;99.90
43627;DHT22;29217;52.586;13.442;2022-10-31T00:42:26;8.90;99.90
43627;DHT22;29217;52.586;13.442;2022-10-31T00:44:52;8.80;99.90
43627;DHT22;29217;52.586;13.442;2022-10-31T00:47:17;8.80;99.90
43627;DHT22;29217;52.586;13.442;2022-10-31T00:49:43;8.80;99.90
43627;DHT22;29217;52.586;13.442;2022-10-31T00:52:08;8.80;99.90
43627;DHT22;29217;52.586;13.442;2022-10-31T00:54:34;8.80;99.90
43627;DHT22;29217;52.586;13.442;2022-10-31T00:56:59;8.80;99.90
43627;DHT22;29217;52.586;13.442;2022-10-31T00:59:25;8.80;99.90
43627;DHT22;29217;52.586;13.442;2022-10-31T01:01:50;8.70;99.90
43627;DHT22;29217;52.586;13.442;2022-10-31T01:04:16;8.70;99.90
43627;DHT22;29217;52.586;13.442;2022-10-31T01:06:41;8.70;99.90
43627;DHT22;29217;52.586;13.442;2022-10-31T01:09:07;8.70;99.90
43627;DHT22;29217;52.586;13.442;2022-10-31T01:11:32;8.70;99.90
43627;DHT22;29217;52.586;13.442;2022-10-31T01:13:58;8.60;99.90
43627;DHT22;29217;52.586;13.442;2022-10-31T01:16:25;8.50;99.90
43627;DHT22;29217;52.586;13.442;2022-10-31T01:18:51;8.50;99.90
43627;DHT22;29217;52.586;13.442;2022-10-31T01:21:20;8.60;99.90
43627;DHT22;29217;52.586;13.442;2022-10-31T01:23:46;8.70;99.90
43627;DHT22;29217;52.586;13.442;2022-10-31T01:28:43;8.60;99.90
43627;DHT22;29217;52.586;13.442;2022-10-31T01:31:09;8.60;99.90
43627;DHT22;29217;52.586;13.442;2022-10-31T01:33:35;8.60;99.90
43627;DHT22;29217;52.586;13.442;2022-10-31T01:36:10;8.50;99.90
43627;DHT22;29217;52.586;13.442;2022-10-31T01:38:36;8.50;99.90
43627;DHT22;29217;52.586;13.442;2022-10-31T01:41:01;8.50;99.90
43627;DHT22;29217;52.586;13.442;2022-10-31T01:46:42;8.40;99.90
43627;DHT22;29217;52.586;13.442;2022-10-31T01:49:13;8.30;99.90
43627;DHT22;29217;52.586;13.442;2022-10-31T01:51:53;8.10;99.90
43627;DHT22;29217;52.586;13.442;2022-10-31T01:54:23;8.10;99.90
43627;DHT22;29217;52.586;13.442;2022-10-31T01:56:53;8.20;99.90
43627;DHT22;29217;52.586;13.442;2022-10-31T01:59:21;8.20;99.90
43627;DHT22;29217;52.586;13.442;2022-10-31T02:01:47;8.10;99.90
43627;DHT22;29217;52.586;13.442;2022-10-31T02:04:14;7.90;99.90
43627;DHT22;29217;52.586;13.442;2022-10-31T02:06:51;8.00;99.90
43627;DHT22;29217;52.586;13.442;2022-10-31T02:09:19;8.10;99.90
43627;DHT22;29217;52.586;13.442;2022-10-31T02:11:51;8.00;99.90
43627;DHT22;29217;52.586;13.442;2022-10-31T02:14:17;8.00;99.90
43627;DHT22;29217;52.586;13.442;2022-10-31T02:16:43;7.90;99.90
43627;DHT22;29217;52.586;13.442;2022-10-31T02:19:12;8.00;99.90
43627;DHT22;29217;52.586;13.442;2022-10-31T02:21:52;7.90;99.90
43627;DHT22;29217;52.586;13.442;2022-10-31T02:27:44;8.10;99.90
43627;DHT22;29217;52.586;13.442;2022-10-31T02:30:28;8.10;99.90
43627;DHT22;29217;52.586;13.442;2022-10-31T02:33:23;8.10;99.90
43627;DHT22;29217;52.586;13.442;2022-10-31T02:38:38;8.10;99.90
43627;DHT22;29217;52.586;13.442;2022-10-31T02:41:18;8.00;99.90
43627;DHT22;29217;52.586;13.442;2022-10-31T02:43:55;8.10;99.90
43627;DHT22;29217;52.586;13.442;2022-10-31T02:46:32;8.10;99.90
43627;DHT22;29217;52.586;13.442;2022-10-31T02:49:07;7.90;99.90
43627;DHT22;29217;52.586;13.442;2022-10-31T02:51:36;7.90;99.90
43627;DHT22;29217;52.586;13.442;2022-10-31T02:54:02;7.90;99.90
43627;DHT22;29217;52.586;13.442;2022-10-31T02:56:27;8.00;99.90
43627;DHT22;29217;52.586;13.442;2022-10-31T02:59:01;8.00;99.90
43627;DHT22;29217;52.586;13.442;2022-10-31T03:01:54;8.00;99.90
43627;DHT22;29217;52.586;13.442;2022-10-31T03:04:36;8.00;99.90
43627;DHT22;29217;52.586;13.442;2022-10-31T03:13:10;7.80;99.90
43627;DHT22;29217;52.586;13.442;2022-10-31T03:15:43;7.80;99.90
43627;DHT22;29217;52.586;13.442;2022-10-31T03:23:34;7.80;99.90
43627;DHT22;29217;52.586;13.442;2022-10-31T03:26:03;7.80;99.90
43627;DHT22;29217;52.586;13.442;2022-10-31T03:28:35;7.90;99.90
43627;DHT22;29217;52.586;13.442;2022-10-31T03:31:03;7.80;99.90
43627;DHT22;29217;52.586;13.442;2022-10-31T03:33:32;7.70;99.90
43627;DHT22;29217;52.586;13.442;2022-10-31T03:36:02;7.60;99.90
43627;DHT22;29217;52.586;13.442;2022-10-31T03:38:29;7.70;99.90
43627;DHT22;29217;52.586;13.442;2022-10-31T03:40:59;7.60;99.90
43627;DHT22;29217;52.586;13.442;2022-10-31T03:43:30;7.50;99.90
43627;DHT22;29217;52.586;13.442;2022-10-31T03:45:58;7.40;99.90
43627;DHT22;29217;52.586;13.442;2022-10-31T03:48:24;7.40;99.90
43627;DHT22;29217;52.586;13.442;2022-10-31T03:53:52;7.50;99.90
43627;DHT22;29217;52.586;13.442;2022-10-31T03:59:16;7.60;99.90
43627;DHT22;29217;52.586;13.442;2022-10-31T04:01:46;7.60;99.90
43627;DHT22;29217;52.586;13.442;2022-10-31T04:04:14;7.60;99.90
43627;DHT22;29217;52.586;13.442;2022-10-31T04:06:42;7.60;99.90
43627;DHT22;29217;52.586;13.442;2022-10-31T04:09:09;7.60;99.90
43627;DHT22;29217;52.586;13.442;2022-10-31T04:11:42;7.60;99.90
43627;DHT22;29217;52.586;13.442;2022-10-31T04:14:11;7.70;99.90
43627;DHT22;29217;52.586;13.442;2022-10-31T04:16:42;7.70;99.90
43627;DHT22;29217;52.586;13.442;2022-10-31T04:19:08;7.70;99.90
43627;DHT22;29217;52.586;13.442;2022-10-31T04:21:33;7.70;99.90
43627;DHT22;29217;52.586;13.442;2022-10-31T04:23:59;7.70;99.90
43627;DHT22;29217;52.586;13.442;2022-10-31T04:26:24;7.70;99.90
43627;DHT22;29217;52.586;13.442;2022-10-31T04:28:50;7.60;99.90
43627;DHT22;29217;52.586;13.442;2022-10-31T04:31:15;7.50;99.90
43627;DHT22;29217;52.586;13.442;2022-10-31T04:33:41;7.40;99.90
43627;DHT22;29217;52.586;13.442;2022-10-31T04:36:07;7.50;99.90
43627;DHT22;29217;52.586;13.442;2022-10-31T04:38:33;7.60;99.90
43627;DHT22;29217;52.586;13.442;2022-10-31T04:40:58;7.60;99.90
43627;DHT22;29217;52.586;13.442;2022-10-31T04:43:24;7.50;99.90
43627;DHT22;29217;52.586;13.442;2022-10-31T04:45:49;7.50;99.90
43627;DHT22;29217;52.586;13.442;2022-10-31T04:48:15;7.60;99.90
43627;DHT22;29217;52.586;13.442;2022-10-31T04:50:41;7.50;99.90
43627;DHT22;29217;52.586;13.442;2022-10-31T04:53:06;7.40;99.90
43627;DHT22;29217;52.586;13.442;2022-10-31T04:55:32;7.40;99.90
43627;DHT22;29217;52.586;13.442;2022-10-31T04:57:57;7.40;99.90
43627;DHT22;29217;52.586;13.442;2022-10-31T05:00:23;7.40;99.90
43627;DHT22;29217;52.586;13.442;2022-10-31T05:02:51;7.50;99.90
43627;DHT22;29217;52.586;13.442;2022-10-31T05:05:19;7.60;99.90
43627;DHT22;29217;52.586;13.442;2022-10-31T05:07:46;7.50;99.90
43627;DHT22;29217;52.586;13.442;2022-10-31T05:10:14;7.60;99.90
43627;DHT22;29217;52.586;13.442;2022-10-31T05:12:52;7.60;99.90
43627;DHT22;29217;52.586;13.442;2022-10-31T05:15:20;7.60;99.90
43627;DHT22;29217;52.586;13.442;2022-10-31T05:17:47;7.60;99.90
43627;DHT22;29217;52.586;13.442;2022-10-31T05:20:13;7.60;99.90
43627;DHT22;29217;52.586;13.442;2022-10-31T05:22:46;7.60;99.90
43627;DHT22;29217;52.586;13.442;2022-10-31T05:25:12;7.60;99.90
43627;DHT22;29217;52.586;13.442;2022-10-31T05:27:46;7.50;99.90
43627;DHT22;29217;52.586;13.442;2022-10-31T05:30:15;7.40;99.90
43627;DHT22;29217;52.586;13.442;2022-10-31T05:32:46;7.40;99.90
43627;DHT22;29217;52.586;13.442;2022-10-31T05:35:14;7.50;99.90
43627;DHT22;29217;52.586;13.442;2022-10-31T05:37:40;7.40;99.90
43627;DHT22;29217;52.586;13.442;2022-10-31T05:40:07;7.40;99.90
43627;DHT22;29217;52.586;13.442;2022-10-31T05:42:33;7.40;99.90
43627;DHT22;29217;52.586;13.442;2022-10-31T05:44:59;7.50;99.90
43627;DHT22;29217;52.586;13.442;2022-10-31T05:47:25;7.50;99.90
43627;DHT22;29217;52.586;13.442;2022-10-31T05:49:50;7.40;99.90
43627;DHT22;29217;52.586;13.442;2022-10-31T05:52:16;7.30;99.90
43627;DHT22;29217;52.586;13.442;2022-10-31T05:54:42;7.30;99.90
43627;DHT22;29217;52.586;13.442;2022-10-31T05:57:08;7.50;99.90
43627;DHT22;29217;52.586;13.442;2022-10-31T05:59:33;7.50;99.90
43627;DHT22;29217;52.586;13.442;2022-10-31T06:01:59;7.50;99.90
43627;DHT22;29217;52.586;13.442;2022-10-31T06:04:24;7.50;99.90
43627;DHT22;29217;52.586;13.442;2022-10-31T06:06:50;7.50;99.90
43627;DHT22;29217;52.586;13.442;2022-10-31T06:09:15;7.40;99.90
43627;DHT22;29217;52.586;13.442;2022-10-31T06:11:41;7.40;99.90
43627;DHT22;29217;52.586;13.442;2022-10-31T06:14:06;7.40;99.90
43627;DHT22;29217;52.586;13.442;2022-10-31T06:16:32;7.40;99.90
43627;DHT22;29217;52.586;13.442;2022-10-31T06:18:57;7.40;99.90
43627;DHT22;29217;52.586;13.442;2022-10-31T06:21:23;7.50;99.90
43627;DHT22;29217;52.586;13.442;2022-10-31T06:23:49;7.50;99.90
43627;DHT22;29217;52.586;13.442;2022-10-31T06:26:14;7.50;99.90
43627;DHT22;29217;52.586;13.442;2022-10-31T06:28:40;7.60;99.90
43627;DHT22;29217;52.586;13.442;2022-10-31T06:31:06;7.60;99.90
43627;DHT22;29217;52.586;13.442;2022-10-31T06:33:33;7.80;99.90
43627;DHT22;29217;52.586;13.442;2022-10-31T06:35:59;7.80;99.90
43627;DHT22;29217;52.586;13.442;2022-10-31T06:38:26;8.00;99.90
43627;DHT22;29217;52.586;13.442;2022-10-31T06:40:52;8.00;99.90
43627;DHT22;29217;52.586;13.442;2022-10-31T06:43:18;8.10;99.90
43627;DHT22;29217;52.586;13.442;2022-10-31T06:45:43;8.10;99.90
43627;DHT22;29217;52.586;13.442;2022-10-31T06:48:09;8.20;99.90
43627;DHT22;29217;52.586;13.442;2022-10-31T06:50:34;8.30;99.90
43627;DHT22;29217;52.586;13.442;2022-10-31T06:53:00;8.30;99.90
43627;DHT22;29217;52.586;13.442;2022-10-31T06:55:26;8.40;99.90
43627;DHT22;29217;52.586;13.442;2022-10-31T06:57:59;8.40;99.90
43627;DHT22;29217;52.586;13.442;2022-10-31T07:00:26;8.50;99.90
43627;DHT22;29217;52.586;13.442;2022-10-31T07:02:56;8.60;99.90
43627;DHT22;29217;52.586;13.442;2022-10-31T07:05:22;8.70;99.90
43627;DHT22;29217;52.586;13.442;2022-10-31T07:07:52;8.80;99.90
43627;DHT22;29217;52.586;13.442;2022-10-31T07:10:18;9.00;99.90
43627;DHT22;29217;52.586;13.442;2022-10-31T07:12:43;9.20;99.90
43627;DHT22;29217;52.586;13.442;2022-10-31T07:15:09;9.50;99.90
43627;DHT22;29217;52.586;13.442;2022-10-31T07:17:34;9.70;99.90
43627;DHT22;29217;52.586;13.442;2022-10-31T07:20:00;10.10;99.90
43627;DHT22;29217;52.586;13.442;2022-10-31T07:22:33;10.50;99.90
43627;DHT22;29217;52.586;13.442;2022-10-31T07:24:58;10.70;99.90
43627;DHT22;29217;52.586;13.442;2022-10-31T07:27:24;10.90;99.90
43627;DHT22;29217;52.586;13.442;2022-10-31T07:29:49;11.10;99.90
43627;DHT22;29217;52.586;13.442;2022-10-31T07:32:15;11.30;99.90
43627;DHT22;29217;52.586;13.442;2022-10-31T07:34:40;11.40;99.90
43627;DHT22;29217;52.586;13.442;2022-10-31T07:37:06;11.60;99.90
43627;DHT22;29217;52.586;13.442;2022-10-31T07:39:31;11.70;99.90
43627;DHT22;29217;52.586;13.442;2022-10-31T07:41:58;11.80;99.90
43627;DHT22;29217;52.586;13.442;2022-10-31T07:44:24;12.00;99.90
43627;DHT22;29217;52.586;13.442;2022-10-31T07:46:49;12.00;99.90
43627;DHT22;29217;52.586;13.442;2022-10-31T07:49:15;12.10;99.90
43627;DHT22;29217;52.586;13.442;2022-10-31T07:51:40;12.20;99.90
43627;DHT22;29217;52.586;13.442;2022-10-31T07:54:05;12.30;99.90
43627;DHT22;29217;52.586;13.442;2022-10-31T07:56:31;12.30;99.90
43627;DHT22;29217;52.586;13.442;2022-10-31T07:58:57;12.40;99.90
43627;DHT22;29217;52.586;13.442;2022-10-31T08:01:22;12.40;99.90
43627;DHT22;29217;52.586;13.442;2022-10-31T08:03:48;12.40;99.90
43627;DHT22;29217;52.586;13.442;2022-10-31T08:06:13;12.40;99.90
43627;DHT22;29217;52.586;13.442;2022-10-31T08:08:39;12.50;99.90
43627;DHT22;29217;52.586;13.442;2022-10-31T08:11:04;12.50;99.90
43627;DHT22;29217;52.586;13.442;2022-10-31T08:13:30;12.60;99.90
43627;DHT22;29217;52.586;13.442;2022-10-31T08:15:57;12.60;99.90
43627;DHT22;29217;52.586;13.442;2022-10-31T08:18:28;12.60;99.90
43627;DHT22;29217;52.586;13.442;2022-10-31T08:20:54;12.70;99.90
43627;DHT22;29217;52.586;13.442;2022-10-31T08:23:19;12.70;99.90
43627;DHT22;29217;52.586;13.442;2022-10-31T08:25:45;12.70;99.90
43627;DHT22;29217;52.586;13.442;2022-10-31T08:28:12;12.70;99.90
43627;DHT22;29217;52.586;13.442;2022-10-31T08:30:38;12.80;99.90
43627;DHT22;29217;52.586;13.442;2022-10-31T08:33:16;12.80;99.90
43627;DHT22;29217;52.586;13.442;2022-10-31T08:35:42;12.80;99.90
43627;DHT22;29217;52.586;13.442;2022-10-31T08:38:10;12.80;99.90
43627;DHT22;29217;52.586;13.442;2022-10-31T08:40:36;12.80;99.90
43627;DHT22;29217;52.586;13.442;2022-10-31T08:43:15;12.90;99.90
43627;DHT22;29217;52.586;13.442;2022-10-31T08:45:42;12.90;99.90
43627;DHT22;29217;52.586;13.442;2022-10-31T08:48:15;12.90;99.90
43627;DHT22;29217;52.586;13.442;2022-10-31T08:50:42;12.90;99.90
43627;DHT22;29217;52.586;13.442;2022-10-31T08:53:16;12.90;99.90
43627;DHT22;29217;52.586;13.442;2022-10-31T08:55:43;12.90;99.90
43627;DHT22;29217;52.586;13.442;2022-10-31T08:58:14;12.90;99.90
43627;DHT22;29217;52.586;13.442;2022-10-31T09:00:41;13.00;99.90
43627;DHT22;29217;52.586;13.442;2022-10-31T09:03:11;13.00;99.90
43627;DHT22;29217;52.586;13.442;2022-10-31T09:05:37;13.10;99.90
43627;DHT22;29217;52.586;13.442;2022-10-31T09:08:04;13.10;99.90
43627;DHT22;29217;52.586;13.442;2022-10-31T09:10:31;13.20;99.90
43627;DHT22;29217;52.586;13.442;2022-10-31T09:12:57;13.30;99.90
43627;DHT22;29217;52.586;13.442;2022-10-31T09:15:24;13.30;99.90
43627;DHT22;29217;52.586;13.442;2022-10-31T09:17:49;13.40;99.90
43627;DHT22;29217;52.586;13.442;2022-10-31T09:20:15;13.50;99.90
43627;DHT22;29217;52.586;13.442;2022-10-31T09:22:41;13.50;99.90
43627;DHT22;29217;52.586;13.442;2022-10-31T09:25:06;13.60;99.90
43627;DHT22;29217;52.586;13.442;2022-10-31T09:27:32;13.50;99.90
43627;DHT22;29217;52.586;13.442;2022-10-31T09:29:57;13.60;99.90
43627;DHT22;29217;52.586;13.442;2022-10-31T09:32:23;13.60;99.90
43627;DHT22;29217;52.586;13.442;2022-10-31T09:34:48;13.70;99.90
43627;DHT22;29217;52.586;13.442;2022-10-31T09:37:14;13.70;99.90
43627;DHT22;29217;52.586;13.442;2022-10-31T09:39:39;13.70;99.90
43627;DHT22;29217;52.586;13.442;2022-10-31T09:44:50;13.80;99.90
43627;DHT22;29217;52.586;13.442;2022-10-31T09:47:29;13.80;99.90
43627;DHT22;29217;52.586;13.442;2022-10-31T09:50:14;13.80;99.90
43627;DHT22;29217;52.586;13.442;2022-10-31T09:52:45;13.80;99.90
43627;DHT22;29217;52.586;13.442;2022-10-31T09:55:17;13.80;99.90
43627;DHT22;29217;52.586;13.442;2022-10-31T09:57:44;13.80;99.90
43627;DHT22;29217;52.586;13.442;2022-10-31T10:00:21;13.90;99.90
43627;DHT22;29217;52.586;13.442;2022-10-31T10:02:57;13.90;99.90
43627;DHT22;29217;52.586;13.442;2022-10-31T10:05:33;14.00;99.90
43627;DHT22;29217;52.586;13.442;2022-10-31T10:08:18;14.10;99.90
43627;DHT22;29217;52.586;13.442;2022-10-31T10:13:29;14.40;99.90
43627;DHT22;29217;52.586;13.442;2022-10-31T10:16:03;14.50;99.90
43627;DHT22;29217;52.586;13.442;2022-10-31T10:21:27;14.70;99.90
43627;DHT22;29217;52.586;13.442;2022-10-31T10:24:10;14.70;99.90
43627;DHT22;29217;52.586;13.442;2022-10-31T10:26:41;14.90;99.90
43627;DHT22;29217;52.586;13.442;2022-10-31T10:31:58;15.00;99.90
43627;DHT22;29217;52.586;13.442;2022-10-31T10:34:29;15.10;99.90
43627;DHT22;29217;52.586;13.442;2022-10-31T10:37:12;15.20;99.90
43627;DHT22;29217;52.586;13.442;2022-10-31T10:39:49;15.30;99.90
43627;DHT22;29217;52.586;13.442;2022-10-31T10:42:17;15.40;99.90
43627;DHT22;29217;52.586;13.442;2022-10-31T10:45:14;15.40;99.90
43627;DHT22;29217;52.586;13.442;2022-10-31T10:48:07;15.50;99.90
43627;DHT22;29217;52.586;13.442;2022-10-31T10:50:39;15.60;99.90
43627;DHT22;29217;52.586;13.442;2022-10-31T10:53:36;15.60;99.90
43627;DHT22;29217;52.586;13.442;2022-10-31T10:58:43;15.70;99.90
43627;DHT22;29217;52.586;13.442;2022-10-31T11:01:14;15.80;99.90
43627;DHT22;29217;52.586;13.442;2022-10-31T11:03:41;15.80;99.90
43627;DHT22;29217;52.586;13.442;2022-10-31T11:06:18;15.90;99.90
43627;DHT22;29217;52.586;13.442;2022-10-31T11:08:47;16.00;99.90
43627;DHT22;29217;52.586;13.442;2022-10-31T11:11:23;16.10;99.90
43627;DHT22;29217;52.586;13.442;2022-10-31T11:13:55;16.10;99.90
43627;DHT22;29217;52.586;13.442;2022-10-31T11:16:38;16.20;99.90
43627;DHT22;29217;52.586;13.442;2022-10-31T11:19:17;16.30;99.90
43627;DHT22;29217;52.586;13.442;2022-10-31T11:21:43;16.30;99.90
43627;DHT22;29217;52.586;13.442;2022-10-31T11:26:39;16.50;99.90
43627;DHT22;29217;52.586;13.442;2022-10-31T11:29:16;16.60;99.90
43627;DHT22;29217;52.586;13.442;2022-10-31T11:31:43;16.60;99.90
43627;DHT22;29217;52.586;13.442;2022-10-31T11:34:17;16.70;99.90
43627;DHT22;29217;52.586;13.442;2022-10-31T11:36:44;16.80;99.90
43627;DHT22;29217;52.586;13.442;2022-10-31T11:39:17;16.90;99.90
43627;DHT22;29217;52.586;13.442;2022-10-31T11:41:44;16.90;99.90
43627;DHT22;29217;52.586;13.442;2022-10-31T11:44:19;16.90;99.90
43627;DHT22;29217;52.586;13.442;2022-10-31T11:47:05;16.90;99.90
43627;DHT22;29217;52.586;13.442;2022-10-31T11:49:36;17.10;99.90
43627;DHT22;29217;52.586;13.442;2022-10-31T11:52:24;17.20;99.90
43627;DHT22;29217;52.586;13.442;2022-10-31T11:57:29;17.40;99.90
43627;DHT22;29217;52.586;13.442;2022-10-31T11:59:57;17.50;99.90
43627;DHT22;29217;52.586;13.442;2022-10-31T12:02:23;17.50;99.90
43627;DHT22;29217;52.586;13.442;2022-10-31T12:07:18;18.00;99.90
43627;DHT22;29217;52.586;13.442;2022-10-31T12:09:44;18.40;99.90
43627;DHT22;29217;52.586;13.442;2022-10-31T12:12:44;19.00;99.90
43627;DHT22;29217;52.586;13.442;2022-10-31T12:18:22;19.90;99.90
43627;DHT22;29217;52.586;13.442;2022-10-31T12:21:05;20.20;99.90
43627;DHT22;29217;52.586;13.442;2022-10-31T12:29:57;20.40;99.90
43627;DHT22;29217;52.586;13.442;2022-10-31T12:35:23;20.40;99.90
43627;DHT22;29217;52.586;13.442;2022-10-31T12:38:04;20.60;99.90
43627;DHT22;29217;52.586;13.442;2022-10-31T12:41:00;20.50;99.90
43627;DHT22;29217;52.586;13.442;2022-10-31T12:43:57;20.40;99.90
43627;DHT22;29217;52.586;13.442;2022-10-31T12:53:16;20.60;99.90
43627;DHT22;29217;52.586;13.442;2022-10-31T12:55:59;20.10;99.90
43627;DHT22;29217;52.586;13.442;2022-10-31T12:58:34;20.10;99.90
43627;DHT22;29217;52.586;13.442;2022-10-31T13:01:15;19.90;99.90
43627;DHT22;29217;52.586;13.442;2022-10-31T13:03:53;19.90;99.90
43627;DHT22;29217;52.586;13.442;2022-10-31T13:06:24;19.90;99.90
43627;DHT22;29217;52.586;13.442;2022-10-31T13:08:56;19.70;99.90
43627;DHT22;29217;52.586;13.442;2022-10-31T13:11:24;19.50;99.90
43627;DHT22;29217;52.586;13.442;2022-10-31T13:16:43;19.50;99.90
43627;DHT22;29217;52.586;13.442;2022-10-31T13:19:17;19.30;99.90
43627;DHT22;29217;52.586;13.442;2022-10-31T13:22:04;19.20;99.90
43627;DHT22;29217;52.586;13.442;2022-10-31T13:24:36;19.20;99.90
43627;DHT22;29217;52.586;13.442;2022-10-31T13:27:18;19.30;99.90
43627;DHT22;29217;52.586;13.442;2022-10-31T13:30:25;19.20;99.90
43627;DHT22;29217;52.586;13.442;2022-10-31T13:33:02;19.10;99.90
43627;DHT22;29217;52.586;13.442;2022-10-31T13:35:55;19.00;99.90
43627;DHT22;29217;52.586;13.442;2022-10-31T13:41:51;18.80;99.90
43627;DHT22;29217;52.586;13.442;2022-10-31T13:46:52;18.80;99.90
43627;DHT22;29217;52.586;13.442;2022-10-31T13:49:37;18.80;99.90
43627;DHT22;29217;52.586;13.442;2022-10-31T13:54:49;18.70;99.90
43627;DHT22;29217;52.586;13.442;2022-10-31T13:57:34;18.60;99.90
43627;DHT22;29217;52.586;13.442;2022-10-31T14:00:04;18.50;99.90
43627;DHT22;29217;52.586;13.442;2022-10-31T14:02:33;18.60;99.90
43627;DHT22;29217;52.586;13.442;2022-10-31T14:05:02;18.50;99.90
43627;DHT22;29217;52.586;13.442;2022-10-31T14:07:29;18.40;99.90
43627;DHT22;29217;52.586;13.442;2022-10-31T14:10:03;18.30;99.90
43627;DHT22;29217;52.586;13.442;2022-10-31T14:12:42;18.30;99.90
43627;DHT22;29217;52.586;13.442;2022-10-31T14:15:25;18.20;99.90
43627;DHT22;29217;52.586;13.442;2022-10-31T14:18:01;18.10;99.90
43627;DHT22;29217;52.586;13.442;2022-10-31T14:20:43;18.00;99.90
43627;DHT22;29217;52.586;13.442;2022-10-31T14:25:54;17.90;99.90
43627;DHT22;29217;52.586;13.442;2022-10-31T14:28:32;17.80;99.90
43627;DHT22;29217;52.586;13.442;2022-10-31T14:30:59;17.50;99.90
43627;DHT22;29217;52.586;13.442;2022-10-31T14:33:27;17.30;99.90
43627;DHT22;29217;52.586;13.442;2022-10-31T14:36:17;17.20;99.90
43627;DHT22;29217;52.586;13.442;2022-10-31T14:38:49;17.10;99.90
43627;DHT22;29217;52.586;13.442;2022-10-31T14:49:11;16.60;99.90
43627;DHT22;29217;52.586;13.442;2022-10-31T14:51:43;16.60;99.90
43627;DHT22;29217;52.586;13.442;2022-10-31T14:54:25;16.50;99.90
43627;DHT22;29217;52.586;13.442;2022-10-31T14:56:55;16.40;99.90
43627;DHT22;29217;52.586;13.442;2022-10-31T14:59:26;16.40;99.90
43627;DHT22;29217;52.586;13.442;2022-10-31T15:02:08;16.40;99.90
43627;DHT22;29217;52.586;13.442;2022-10-31T15:04:36;16.30;99.90
43627;DHT22;29217;52.586;13.442;2022-10-31T15:07:17;16.30;99.90
43627;DHT22;29217;52.586;13.442;2022-10-31T15:09:44;16.20;99.90
43627;DHT22;29217;52.586;13.442;2022-10-31T15:12:29;16.10;99.90
43627;DHT22;29217;52.586;13.442;2022-10-31T15:14:56;16.10;99.90
43627;DHT22;29217;52.586;13.442;2022-10-31T15:17:23;16.10;99.90
43627;DHT22;29217;52.586;13.442;2022-10-31T15:19:50;16.00;99.90
43627;DHT22;29217;52.586;13.442;2022-10-31T15:22:18;16.00;99.90
43627;DHT22;29217;52.586;13.442;2022-10-31T15:24:44;15.90;99.90
43627;DHT22;29217;52.586;13.442;2022-10-31T15:27:13;15.80;99.90
43627;DHT22;29217;52.586;13.442;2022-10-31T15:29:48;15.70;99.90
43627;DHT22;29217;52.586;13.442;2022-10-31T15:32:26;15.60;99.90
43627;DHT22;29217;52.586;13.442;2022-10-31T15:34:53;15.50;99.90
43627;DHT22;29217;52.586;13.442;2022-10-31T15:37:21;15.40;99.90
43627;DHT22;29217;52.586;13.442;2022-10-31T15:39:48;15.30;99.90
43627;DHT22;29217;52.586;13.442;2022-10-31T15:42:39;15.30;99.90
43627;DHT22;29217;52.586;13.442;2022-10-31T15:45:17;15.30;99.90
43627;DHT22;29217;52.586;13.442;2022-10-31T15:47:53;15.10;99.90
43627;DHT22;29217;52.586;13.442;2022-10-31T15:50:46;15.00;99.90
43627;DHT22;29217;52.586;13.442;2022-10-31T15:53:18;14.90;99.90
43627;DHT22;29217;52.586;13.442;2022-10-31T15:55:51;14.90;99.90
43627;DHT22;29217;52.586;13.442;2022-10-31T15:58:18;14.80;99.90
43627;DHT22;29217;52.586;13.442;2022-10-31T16:00:44;14.70;99.90
43627;DHT22;29217;52.586;13.442;2022-10-31T16:13:37;14.60;99.90
43627;DHT22;29217;52.586;13.442;2022-10-31T16:16:13;14.70;99.90
43627;DHT22;29217;52.586;13.442;2022-10-31T16:18:40;14.70;99.90
43627;DHT22;29217;52.586;13.442;2022-10-31T16:21:08;14.60;99.90
43627;DHT22;29217;52.586;13.442;2022-10-31T16:23:34;14.70;99.90
43627;DHT22;29217;52.586;13.442;2022-10-31T16:26:05;14.70;99.90
43627;DHT22;29217;52.586;13.442;2022-10-31T16:28:31;14.70;99.90
43627;DHT22;29217;52.586;13.442;2022-10-31T16:30:57;14.60;99.90
43627;DHT22;29217;52.586;13.442;2022-10-31T16:38:55;14.60;99.90
43627;DHT22;29217;52.586;13.442;2022-10-31T16:41:21;14.60;99.90
43627;DHT22;29217;52.586;13.442;2022-10-31T16:43:48;14.50;99.90
43627;DHT22;29217;52.586;13.442;2022-10-31T16:46:26;14.50;99.90
43627;DHT22;29217;52.586;13.442;2022-10-31T16:48:53;14.50;99.90
43627;DHT22;29217;52.586;13.442;2022-10-31T16:51:19;14.50;99.90
43627;DHT22;29217;52.586;13.442;2022-10-31T16:53:45;14.50;99.90
43627;DHT22;29217;52.586;13.442;2022-10-31T16:56:16;14.50;99.90
43627;DHT22;29217;52.586;13.442;2022-10-31T16:58:42;14.50;99.90
43627;DHT22;29217;52.586;13.442;2022-10-31T17:01:09;14.50;99.90
43627;DHT22;29217;52.586;13.442;2022-10-31T17:03:35;14.40;99.90
43627;DHT22;29217;52.586;13.442;2022-10-31T17:06:01;14.30;99.90
43627;DHT22;29217;52.586;13.442;2022-10-31T17:08:27;14.30;99.90
43627;DHT22;29217;52.586;13.442;2022-10-31T17:10:54;14.20;99.90
43627;DHT22;29217;52.586;13.442;2022-10-31T17:13:22;14.10;99.90
43627;DHT22;29217;52.586;13.442;2022-10-31T17:15:51;14.10;99.90
43627;DHT22;29217;52.586;13.442;2022-10-31T17:18:18;14.00;99.90
43627;DHT22;29217;52.586;13.442;2022-10-31T17:20:44;13.90;99.90
43627;DHT22;29217;52.586;13.442;2022-10-31T17:23:12;13.80;99.90
43627;DHT22;29217;52.586;13.442;2022-10-31T17:25:38;13.80;99.90
43627;DHT22;29217;52.586;13.442;2022-10-31T17:28:04;13.90;99.90